Time;durP1;ratioP1;P1;durP2;ratioP2;P2;SDS_P1;SDS_P2;PMS_P1;PMS_P2;Temp;Humidity;BMP_temperature;BMP_pressure;BME280_temperature;BME280_humidity;BME280_pressure;Samples;Min_cycle;Max_cycle;Signal;HPM_P1;HPM_P2
2023/08/02 00:03:06;;;;;;;5.03;2.72;;;20.80;72.40;;;;;;10368890;28;20022;-54
2023/08/02 00:08:07;;;;;;;9.60;2.22;;;20.80;72.40;;;;;;10368497;28;20034;-53
2023/08/02 00:13:08;;;;;;;3.25;2.15;;;20.80;72.40;;;;;;10332439;28;20024;-54
2023/08/02 00:18:08;;;;;;;5.80;2.47;;;20.80;72.90;;;;;;10365246;28;20485;-54
2023/08/02 00:23:09;;;;;;;3.00;1.80;;;20.80;72.30;;;;;;10367843;28;20014;-54
2023/08/02 00:28:10;;;;;;;3.60;1.95;;;20.90;72.40;;;;;;10369558;28;20018;-54
2023/08/02 00:33:11;;;;;;;5.00;2.47;;;20.80;73.00;;;;;;10368033;28;20105;-53
2023/08/02 00:38:12;;;;;;;4.57;2.30;;;20.80;72.30;;;;;;10367569;28;20176;-53
2023/08/02 00:43:13;;;;;;;3.33;2.20;;;20.80;72.30;;;;;;10349724;28;20049;-52
2023/08/02 00:48:14;;;;;;;3.88;2.28;;;20.80;72.30;;;;;;10367020;28;20030;-53
2023/08/02 00:53:14;;;;;;;3.75;1.80;;;20.80;72.30;;;;;;10367176;28;20029;-54
2023/08/02 00:58:15;;;;;;;4.93;2.90;;;20.80;72.30;;;;;;10366839;28;20393;-55
2023/08/02 01:03:16;;;;;;;5.03;2.38;;;20.80;72.40;;;;;;10365661;28;20493;-53
2023/08/02 01:08:31;;;;;;;4.13;1.85;;;20.80;72.30;;;;;;10366465;28;20368;-54
2023/08/02 01:13:35;;;;;;;5.10;2.15;;;20.80;72.20;;;;;;10327195;28;20550;-54
2023/08/02 01:18:37;;;;;;;2.83;2.45;;;20.80;72.20;;;;;;10366692;28;20079;-54
2023/08/02 01:23:38;;;;;;;3.58;2.00;;;20.80;72.20;;;;;;10365963;28;20487;-54
2023/08/02 01:28:44;;;;;;;4.38;2.42;;;20.80;72.20;;;;;;10366296;28;20083;-55
2023/08/02 01:33:53;;;;;;;4.80;2.58;;;20.80;72.20;;;;;;10364451;28;20041;-53
2023/08/02 01:38:54;;;;;;;;;;;20.80;72.10;;;;;;10381026;28;20030;-54
2023/08/02 01:43:55;;;;;;;6.90;2.08;;;20.70;71.90;;;;;;10365244;28;19918;-55
2023/08/02 01:48:55;;;;;;;3.92;2.17;;;20.80;72.10;;;;;;10366511;28;20496;-53
2023/08/02 01:53:56;;;;;;;3.88;2.40;;;20.70;72.10;;;;;;10364718;28;20026;-55
2023/08/02 01:58:57;;;;;;;4.57;2.58;;;20.70;72.00;;;;;;10364897;28;20386;-54
2023/08/02 02:03:57;;;;;;;4.07;2.72;;;20.70;72.00;;;;;;10379400;28;20465;-54
2023/08/02 02:08:58;;;;;;;3.08;2.30;;;20.70;72.00;;;;;;10356702;28;20499;-53
2023/08/02 02:13:59;;;;;;;4.68;2.28;;;20.70;72.00;;;;;;10327016;28;20049;-53
2023/08/02 02:18:59;;;;;;;6.75;2.58;;;20.70;72.00;;;;;;10347453;28;20134;-54
2023/08/02 02:24:00;;;;;;;2.67;2.03;;;20.70;72.00;;;;;;10326054;28;20041;-54
2023/08/02 02:29:01;;;;;;;2.92;1.75;;;20.70;71.90;;;;;;10322471;28;20054;-54
2023/08/02 02:34:01;;;;;;;3.88;1.80;;;20.70;72.00;;;;;;10322713;28;20494;-53
2023/08/02 02:39:03;;;;;;;4.32;2.28;;;20.70;72.00;;;;;;10322395;28;20465;-53
2023/08/02 02:44:04;;;;;;;4.03;2.22;;;20.70;72.10;;;;;;10322734;28;20114;-55
2023/08/02 02:49:05;;;;;;;4.10;2.50;;;20.70;72.00;;;;;;10322781;28;20027;-55
2023/08/02 02:54:05;;;;;;;5.18;2.20;;;20.70;72.00;;;;;;10321965;28;20022;-54
2023/08/02 02:59:06;;;;;;;4.38;1.92;;;20.60;71.90;;;;;;10321268;28;20089;-54
2023/08/02 03:04:07;;;;;;;3.67;2.15;;;20.70;71.90;;;;;;10321888;28;20110;-53
2023/08/02 03:09:07;;;;;;;3.83;2.00;;;20.60;71.90;;;;;;10335316;28;20109;-51
2023/08/02 03:14:08;;;;;;;4.43;2.65;;;20.60;71.90;;;;;;10326454;28;20048;-54
2023/08/02 03:19:10;;;;;;;3.53;2.38;;;20.60;71.90;;;;;;10361666;28;20033;-53
2023/08/02 03:24:12;;;;;;;2.80;2.10;;;20.60;71.90;;;;;;10352813;28;20010;-53
2023/08/02 03:29:12;;;;;;;7.63;2.60;;;20.60;72.20;;;;;;10354442;28;20477;-52
2023/08/02 03:34:14;;;;;;;3.92;2.22;;;20.70;72.40;;;;;;10325317;28;20034;-54
2023/08/02 03:39:14;;;;;;;3.55;1.38;;;20.80;72.20;;;;;;10323747;28;20101;-53
2023/08/02 03:44:15;;;;;;;3.47;1.70;;;20.80;72.30;;;;;;10336597;28;20114;-53
2023/08/02 03:49:16;;;;;;;3.60;2.45;;;20.80;72.20;;;;;;10327204;28;20126;-55
2023/08/02 03:54:16;;;;;;;4.22;2.08;;;20.70;72.40;;;;;;10317452;28;20537;-56
2023/08/02 03:59:17;;;;;;;4.22;1.67;;;20.70;72.10;;;;;;10321249;28;20042;-55
2023/08/02 04:04:18;;;;;;;4.45;2.33;;;20.70;72.20;;;;;;10321630;28;20100;-56
2023/08/02 04:09:18;;;;;;;3.08;1.90;;;20.60;72.10;;;;;;10334358;28;20524;-55
2023/08/02 04:14:19;;;;;;;3.50;2.05;;;20.60;72.10;;;;;;10327850;28;20089;-56
2023/08/02 04:19:20;;;;;;;3.92;2.15;;;20.60;72.10;;;;;;10361713;28;20121;-55
2023/08/02 04:24:20;;;;;;;2.95;1.95;;;20.60;72.10;;;;;;10361505;28;20049;-55
2023/08/02 04:29:21;;;;;;;4.07;2.45;;;20.60;72.10;;;;;;10362510;28;20425;-55
2023/08/02 04:34:22;;;;;;;5.03;2.13;;;20.60;72.10;;;;;;10348448;28;20474;-55
2023/08/02 04:39:22;;;;;;;3.80;1.65;;;20.60;72.10;;;;;;10343541;28;20051;-57
2023/08/02 04:44:23;;;;;;;3.42;1.92;;;20.60;72.10;;;;;;10330674;28;20100;-55
2023/08/02 04:49:24;;;;;;;3.03;2.22;;;20.60;72.50;;;;;;10330370;28;20029;-57
2023/08/02 04:54:24;;;;;;;4.60;2.45;;;20.60;72.10;;;;;;10330555;28;20145;-56
2023/08/02 04:59:25;;;;;;;3.10;2.13;;;20.60;72.20;;;;;;10330015;28;20113;-56
2023/08/02 05:04:26;;;;;;;3.40;2.30;;;20.60;72.40;;;;;;10329768;28;20025;-55
2023/08/02 05:09:26;;;;;;;5.63;2.63;;;20.60;72.20;;;;;;10352255;28;20029;-56
2023/08/02 05:14:28;;;;;;;3.97;2.45;;;20.60;72.10;;;;;;10368133;28;20037;-56
2023/08/02 05:19:29;;;;;;;4.25;2.08;;;20.60;72.10;;;;;;10369409;28;20061;-56
2023/08/02 05:24:30;;;;;;;3.58;2.30;;;20.60;72.10;;;;;;10369433;28;20032;-57
2023/08/02 05:29:30;;;;;;;12.07;3.42;;;20.60;72.30;;;;;;10366743;28;20101;-58
2023/08/02 05:34:31;;;;;;;3.63;2.63;;;20.60;72.10;;;;;;10363940;28;20105;-55
2023/08/02 05:39:31;;;;;;;5.40;2.92;;;20.60;72.80;;;;;;10343227;28;20615;-56
2023/08/02 05:44:32;;;;;;;7.03;2.90;;;20.70;72.70;;;;;;10337345;28;20156;-56
2023/08/02 05:49:33;;;;;;;7.20;3.00;;;20.80;72.70;;;;;;10327536;28;20101;-55
2023/08/02 05:54:33;;;;;;;6.80;2.15;;;20.80;72.90;;;;;;10327767;28;20014;-55
2023/08/02 05:59:37;;;;;;;6.40;3.15;;;20.90;72.80;;;;;;10339831;28;20114;-54
2023/08/02 06:04:41;;;;;;;7.72;2.65;;;20.80;72.90;;;;;;10327357;28;20102;-55
2023/08/02 06:09:42;;;;;;;6.35;2.85;;;20.90;72.80;;;;;;10348198;28;20030;-55
2023/08/02 06:14:43;;;;;;;9.90;2.75;;;20.90;73.20;;;;;;10336921;28;20815;-55
2023/08/02 06:19:43;;;;;;;6.80;2.40;;;20.80;73.30;;;;;;10367217;28;20555;-57
2023/08/02 06:24:44;;;;;;;5.40;2.70;;;20.80;73.30;;;;;;10367427;28;20049;-55
2023/08/02 06:29:45;;;;;;;7.63;3.28;;;20.80;73.40;;;;;;10367547;28;20092;-54
2023/08/02 06:34:45;;;;;;;13.20;3.35;;;20.80;73.30;;;;;;10366570;28;20060;-55
2023/08/02 06:39:46;;;;;;;8.30;2.60;;;20.80;73.20;;;;;;10366163;28;20125;-55
2023/08/02 06:44:47;;;;;;;14.32;2.88;;;20.80;73.40;;;;;;10366376;28;20073;-56
2023/08/02 06:49:47;;;;;;;6.93;3.10;;;20.90;73.40;;;;;;10381652;28;20026;-55
2023/08/02 06:54:52;;;;;;;16.75;5.38;;;21.00;73.50;;;;;;10366233;28;20087;-55
2023/08/02 06:59:55;;;;;;;10.48;3.53;;;21.10;73.50;;;;;;10365192;28;20041;-55
2023/08/02 07:04:56;;;;;;;12.63;3.33;;;21.20;73.90;;;;;;10365402;28;20404;-54
2023/08/02 07:09:56;;;;;;;9.73;3.75;;;21.30;74.10;;;;;;10364435;28;20021;-54
2023/08/02 07:14:57;;;;;;;15.38;4.07;;;21.20;74.30;;;;;;10350883;28;20025;-55
2023/08/02 07:19:58;;;;;;;11.52;3.95;;;21.30;75.10;;;;;;10362800;28;20066;-55
2023/08/02 07:24:58;;;;;;;10.63;4.30;;;21.40;73.90;;;;;;10335940;28;20661;-55
2023/08/02 07:29:59;;;;;;;14.00;3.60;;;21.50;73.60;;;;;;10322978;28;20069;-55
2023/08/02 07:34:59;;;;;;;9.73;3.40;;;21.50;73.50;;;;;;10324362;28;20081;-55
2023/08/02 07:40:00;;;;;;;12.85;3.20;;;21.50;73.50;;;;;;10338963;28;20512;-54
2023/08/02 07:45:06;;;;;;;13.98;3.20;;;21.50;73.60;;;;;;10324162;28;20038;-55
2023/08/02 07:50:07;;;;;;;12.20;4.05;;;21.50;73.50;;;;;;10323965;28;20057;-56
2023/08/02 07:55:08;;;;;;;12.88;3.92;;;21.50;73.60;;;;;;10323630;28;20027;-55
2023/08/02 08:00:09;;;;;;;13.07;4.18;;;21.50;73.70;;;;;;10323497;28;20034;-54
2023/08/02 08:05:10;;;;;;;12.93;3.97;;;21.50;73.90;;;;;;10323565;28;20077;-54
2023/08/02 08:10:11;;;;;;;12.30;3.78;;;21.60;73.70;;;;;;10336515;28;20019;-55
2023/08/02 08:15:12;;;;;;;10.05;3.80;;;21.50;73.80;;;;;;10344963;28;20104;-55
2023/08/02 08:20:12;;;;;;;26.80;4.38;;;21.50;74.00;;;;;;10371244;28;20054;-55
2023/08/02 08:25:13;;;;;;;15.68;3.58;;;21.50;74.20;;;;;;10371067;28;20025;-55
2023/08/02 08:30:14;;;;;;;17.23;4.35;;;21.50;74.30;;;;;;10370421;28;20792;-55
2023/08/02 08:35:15;;;;;;;12.65;3.38;;;21.50;74.20;;;;;;10370391;28;20056;-54
2023/08/02 08:40:18;;;;;;;15.82;4.00;;;21.60;73.80;;;;;;10370346;28;20046;-54
2023/08/02 08:45:21;;;;;;;14.25;3.17;;;21.60;74.10;;;;;;10369207;28;20412;-55
2023/08/02 08:50:22;;;;;;;19.45;3.63;;;21.50;74.60;;;;;;10370789;28;20040;-55
2023/08/02 08:55:28;;;;;;;16.90;3.30;;;21.40;75.00;;;;;;10369390;28;20050;-54
2023/08/02 09:00:33;;;;;;;10.48;2.63;;;21.30;74.70;;;;;;10335789;28;20682;-54
2023/08/02 09:05:34;;;;;;;9.85;3.10;;;21.20;75.00;;;;;;10340561;28;20026;-55
2023/08/02 09:10:35;;;;;;;7.78;3.03;;;21.10;75.20;;;;;;10340086;28;20018;-54
2023/08/02 09:15:35;;;;;;;9.65;2.97;;;21.00;75.20;;;;;;10364276;28;20041;-54
2023/08/02 09:20:36;;;;;;;7.13;2.97;;;20.90;75.10;;;;;;10326534;28;20121;-53
2023/08/02 09:25:37;;;;;;;10.57;2.78;;;20.90;75.10;;;;;;10332323;28;20097;-54
2023/08/02 09:30:40;;;;;;;14.77;2.95;;;20.90;75.00;;;;;;10365283;28;20069;-53
2023/08/02 09:35:47;;;;;;;8.43;2.90;;;20.90;75.10;;;;;;10366850;28;20600;-53
2023/08/02 09:40:48;;;;;;;4.55;1.92;;;20.90;75.00;;;;;;10366765;28;20057;-55
2023/08/02 09:45:48;;;;;;;4.13;2.00;;;20.90;75.10;;;;;;10366317;28;20024;-54
2023/08/02 09:51:03;;;;;;;6.85;1.90;;;20.90;74.90;;;;;;10366474;28;20026;-54
2023/08/02 09:56:04;;;;;;;4.63;1.63;;;20.90;74.90;;;;;;10366572;28;20381;-54
2023/08/02 10:01:05;;;;;;;6.30;2.22;;;21.00;75.50;;;;;;10365725;28;20344;-54
2023/08/02 10:06:07;;;;;;;5.18;2.50;;;21.00;74.90;;;;;;10364128;28;20033;-52
2023/08/02 10:11:09;;;;;;;7.30;2.63;;;20.90;75.00;;;;;;10344384;28;20098;-53
2023/08/02 10:16:11;;;;;;;4.75;2.47;;;20.90;75.10;;;;;;10345806;28;20358;-54
2023/08/02 10:21:13;;;;;;;3.92;2.10;;;20.90;75.20;;;;;;10365230;28;20131;-54
2023/08/02 10:26:15;;;;;;;3.78;1.98;;;20.90;75.10;;;;;;10364710;28;20053;-53
2023/08/02 10:31:16;;;;;;;5.15;1.75;;;20.90;75.20;;;;;;10363742;28;20037;-54
2023/08/02 10:36:17;;;;;;;3.22;1.52;;;20.90;75.00;;;;;;10362048;28;20424;-52
2023/08/02 10:41:21;;;;;;;3.90;1.65;;;21.00;75.00;;;;;;10350505;28;20176;-53
2023/08/02 10:46:28;;;;;;;16.02;2.75;;;21.00;75.00;;;;;;10357699;28;20397;-55
2023/08/02 10:51:33;;;;;;;17.25;3.08;;;21.10;75.60;;;;;;10325636;28;20033;-55
2023/08/02 10:56:34;;;;;;;14.05;2.47;;;21.20;75.90;;;;;;10325542;28;20022;-55
2023/08/02 11:01:35;;;;;;;25.35;3.10;;;21.30;75.90;;;;;;10324281;28;20067;-54
2023/08/02 11:06:35;;;;;;;14.85;2.70;;;21.30;75.80;;;;;;10360772;28;20045;-54
2023/08/02 11:11:36;;;;;;;13.77;2.08;;;21.40;75.90;;;;;;10359835;28;20042;-54
2023/08/02 11:16:42;;;;;;;8.60;2.00;;;21.40;76.10;;;;;;10350187;28;20023;-54
2023/08/02 11:21:53;;;;;;;10.43;3.00;;;21.50;75.80;;;;;;10338407;28;20049;-53
2023/08/02 11:26:55;;;;;;;6.95;1.73;;;21.50;75.90;;;;;;10322935;28;20019;-54
2023/08/02 11:32:04;;;;;;;9.00;1.70;;;21.50;76.50;;;;;;10324245;28;20046;-55
2023/08/02 11:37:05;;;;;;;5.95;1.77;;;21.50;76.60;;;;;;10331094;28;20033;-56
2023/08/02 11:42:06;;;;;;;10.23;2.17;;;21.40;76.30;;;;;;10364522;28;20398;-55
2023/08/02 11:47:06;;;;;;;8.70;2.10;;;21.50;76.30;;;;;;10363899;28;20045;-58
2023/08/02 11:52:08;;;;;;;10.30;2.30;;;21.50;76.40;;;;;;10359794;28;20472;-55
2023/08/02 11:57:08;;;;;;;11.70;2.03;;;21.40;76.70;;;;;;10361982;28;20026;-54
2023/08/02 12:02:30;;;;;;;15.95;2.83;;;21.50;77.00;;;;;;10357277;28;20535;-56
2023/08/02 12:07:34;;;;;;;7.93;1.88;;;21.60;76.90;;;;;;10361656;28;20397;-55
2023/08/02 12:12:35;;;;;;;12.55;2.83;;;21.60;76.80;;;;;;10327817;28;20026;-54
2023/08/02 12:17:36;;;;;;;7.88;1.92;;;21.50;76.80;;;;;;10355687;28;20034;-55
2023/08/02 12:22:49;;;;;;;12.30;3.15;;;21.60;76.80;;;;;;10363069;28;20112;-56
2023/08/02 12:28:07;;;;;;;9.25;2.45;;;21.70;76.70;;;;;;10363612;28;20069;-56
2023/08/02 12:33:08;;;;;;;10.63;2.60;;;21.50;77.00;;;;;;10362385;28;20021;-55
2023/08/02 12:38:08;;;;;;;10.43;2.08;;;21.50;77.30;;;;;;10363595;28;20350;-56
2023/08/02 12:43:09;;;;;;;10.70;2.88;;;21.40;77.10;;;;;;10363120;28;20066;-57
2023/08/02 12:48:10;;;;;;;7.60;2.22;;;21.40;77.00;;;;;;10332725;28;20038;-56
2023/08/02 12:53:11;;;;;;;6.95;1.83;;;21.50;77.00;;;;;;10323038;28;20097;-55
2023/08/02 12:58:11;;;;;;;8.45;2.05;;;21.50;76.70;;;;;;10332945;28;20034;-55
2023/08/02 13:03:12;;;;;;;7.75;2.00;;;21.50;76.70;;;;;;10362976;28;20081;-55
2023/08/02 13:08:15;;;;;;;9.10;2.17;;;21.40;77.00;;;;;;10342278;28;20026;-55
2023/08/02 13:13:16;;;;;;;4.60;2.10;;;21.40;76.90;;;;;;10348827;28;20022;-54
2023/08/02 13:18:16;;;;;;;10.30;2.13;;;21.40;76.80;;;;;;10367394;28;20565;-55
2023/08/02 13:23:17;;;;;;;6.57;1.83;;;21.30;76.80;;;;;;10367626;28;20109;-55
2023/08/02 13:28:18;;;;;;;8.77;2.40;;;21.40;76.80;;;;;;10367283;28;20046;-55
2023/08/02 13:33:18;;;;;;;8.40;1.98;;;21.40;76.60;;;;;;10366915;28;20069;-56
2023/08/02 13:38:19;;;;;;;4.40;1.67;;;21.30;76.70;;;;;;10364980;28;20585;-55
2023/08/02 13:43:20;;;;;;;5.45;1.50;;;21.40;76.50;;;;;;10365880;28;20505;-54
2023/08/02 13:48:20;;;;;;;4.93;1.55;;;21.40;76.30;;;;;;10366798;28;20116;-55
2023/08/02 13:53:21;;;;;;;4.80;1.50;;;21.30;76.10;;;;;;10366154;28;20491;-55
2023/08/02 13:58:24;;;;;;;9.23;1.75;;;21.30;76.10;;;;;;10366519;28;20573;-55
2023/08/02 14:03:25;;;;;;;9.52;2.40;;;21.30;76.10;;;;;;10365789;28;20029;-55
2023/08/02 14:08:26;;;;;;;8.52;1.85;;;21.40;76.30;;;;;;10364558;28;20049;-55
2023/08/02 14:13:26;;;;;;;9.13;2.65;;;21.40;76.20;;;;;;10326888;28;20076;-55
2023/08/02 14:18:27;;;;;;;7.20;1.80;;;21.30;76.20;;;;;;10365158;28;20066;-56
2023/08/02 14:23:28;;;;;;;8.52;2.60;;;21.30;75.90;;;;;;10365154;28;20046;-56
2023/08/02 14:28:28;;;;;;;12.32;2.63;;;21.40;76.20;;;;;;10365310;28;20177;-55
2023/08/02 14:33:29;;;;;;;12.10;2.70;;;21.40;76.00;;;;;;10364344;28;20105;-57
2023/08/02 14:38:32;;;;;;;15.50;2.72;;;21.40;75.70;;;;;;10361508;28;20033;-55
2023/08/02 14:43:33;;;;;;;9.93;1.70;;;21.40;75.70;;;;;;10354236;28;20080;-56
2023/08/02 14:48:33;;;;;;;14.35;2.83;;;21.30;75.40;;;;;;10342113;28;20027;-55
2023/08/02 14:53:34;;;;;;;8.23;1.88;;;21.30;75.80;;;;;;10334310;28;20065;-55
2023/08/02 14:58:36;;;;;;;15.48;3.17;;;21.30;75.00;;;;;;10339596;28;20389;-55
2023/08/02 15:03:37;;;;;;;12.07;1.92;;;21.40;75.50;;;;;;10333471;28;20458;-55
2023/08/02 15:08:38;;;;;;;7.28;1.77;;;21.40;74.20;;;;;;10354982;28;20136;-55
2023/08/02 15:13:38;;;;;;;11.90;1.83;;;21.40;74.70;;;;;;10361041;28;20053;-55
2023/08/02 15:18:40;;;;;;;6.22;1.40;;;21.30;74.80;;;;;;10348544;28;20576;-56
2023/08/02 15:23:40;;;;;;;4.88;1.35;;;21.30;74.80;;;;;;10346261;28;20517;-56
2023/08/02 15:28:41;;;;;;;5.05;1.38;;;21.30;74.70;;;;;;10341126;28;20105;-57
2023/08/02 15:33:42;;;;;;;3.22;1.17;;;21.30;74.70;;;;;;10339365;28;20050;-57
2023/08/02 15:38:43;;;;;;;4.25;1.23;;;21.20;74.60;;;;;;10342188;28;20470;-57
2023/08/02 15:43:44;;;;;;;7.63;2.28;;;21.20;75.10;;;;;;10348329;28;20058;-56
2023/08/02 15:48:44;;;;;;;10.48;2.22;;;21.20;73.90;;;;;;10362136;28;20108;-55
2023/08/02 15:53:46;;;;;;;8.40;1.95;;;21.40;74.00;;;;;;10356371;28;20033;-57
2023/08/02 15:58:47;;;;;;;9.98;2.30;;;21.70;74.00;;;;;;10344928;28;20476;-56
2023/08/02 16:03:47;;;;;;;15.73;4.07;;;21.80;74.30;;;;;;10338859;28;20089;-55
2023/08/02 16:08:48;;;;;;;9.02;1.70;;;21.90;74.70;;;;;;10349657;28;20107;-55
2023/08/02 16:13:49;;;;;;;14.38;2.78;;;22.20;74.00;;;;;;10350735;28;20113;-55
2023/08/02 16:18:49;;;;;;;7.97;2.08;;;22.00;75.10;;;;;;10354416;28;20080;-56
2023/08/02 16:23:50;;;;;;;9.20;2.15;;;21.90;75.40;;;;;;10355160;28;20608;-56
2023/08/02 16:28:51;;;;;;;11.25;3.90;;;21.90;75.80;;;;;;10350131;28;20054;-57
2023/08/02 16:33:51;;;;;;;13.18;2.28;;;21.80;75.40;;;;;;10348988;28;20109;-57
2023/08/02 16:38:52;;;;;;;7.68;1.88;;;21.80;76.00;;;;;;10360611;28;20037;-57
2023/08/02 16:43:52;;;;;;;6.25;1.83;;;21.80;75.90;;;;;;10358406;28;20129;-55
2023/08/02 16:48:53;;;;;;;16.70;3.17;;;21.80;76.10;;;;;;10357766;28;20099;-57
2023/08/02 16:53:54;;;;;;;8.30;1.77;;;21.70;75.90;;;;;;10358223;28;20034;-57
2023/08/02 16:58:55;;;;;;;9.55;2.00;;;21.60;76.20;;;;;;10344079;28;20097;-57
2023/08/02 17:03:55;;;;;;;11.38;2.60;;;21.60;76.10;;;;;;10355006;28;20108;-57
2023/08/02 17:08:56;;;;;;;8.45;1.77;;;21.60;76.20;;;;;;10348096;28;20022;-57
2023/08/02 17:13:57;;;;;;;10.38;2.40;;;21.60;76.50;;;;;;10355366;28;20107;-57
2023/08/02 17:18:57;;;;;;;8.82;1.75;;;21.60;76.60;;;;;;10366190;28;20139;-57
2023/08/02 17:23:58;;;;;;;9.45;3.00;;;21.60;77.30;;;;;;10352732;28;20061;-55
2023/08/02 17:28:59;;;;;;;7.45;1.70;;;21.60;76.90;;;;;;10354983;28;20023;-57
2023/08/02 17:33:59;;;;;;;9.45;2.50;;;21.60;76.40;;;;;;10350336;28;20053;-57
2023/08/02 17:39:03;;;;;;;5.55;1.60;;;21.60;76.70;;;;;;10345637;28;20022;-57
2023/08/02 17:44:04;;;;;;;4.53;1.40;;;21.50;76.90;;;;;;10327918;28;20110;-58
2023/08/02 17:49:04;;;;;;;7.50;1.55;;;21.50;76.60;;;;;;10328157;28;20476;-58
2023/08/02 17:54:05;;;;;;;9.50;2.15;;;21.50;76.50;;;;;;10327788;28;20482;-57
2023/08/02 17:59:06;;;;;;;4.22;1.30;;;21.50;76.40;;;;;;10327554;28;20035;-58
2023/08/02 18:04:12;;;;;;;9.32;2.17;;;21.50;76.50;;;;;;10347804;28;20018;-57
2023/08/02 18:09:13;;;;;;;5.13;2.00;;;21.50;76.80;;;;;;10364656;28;20034;-57
2023/08/02 18:14:14;;;;;;;6.00;2.47;;;21.60;76.40;;;;;;10352589;28;20053;-56
2023/08/02 18:19:14;;;;;;;7.95;1.67;;;21.60;76.40;;;;;;10366783;28;20125;-57
2023/08/02 18:24:15;;;;;;;6.03;1.52;;;21.60;76.10;;;;;;10357635;28;20129;-57
2023/08/02 18:29:16;;;;;;;6.03;1.50;;;21.60;76.10;;;;;;10354078;28;20029;-57
2023/08/02 18:34:17;;;;;;;5.63;1.73;;;21.60;76.10;;;;;;10349907;28;20110;-57
2023/08/02 18:39:17;;;;;;;3.92;1.60;;;21.60;76.10;;;;;;10363787;28;20130;-57
2023/08/02 18:44:18;;;;;;;6.38;1.30;;;21.60;75.90;;;;;;10363120;28;20029;-56
2023/08/02 18:49:19;;;;;;;4.68;1.98;;;21.60;75.70;;;;;;10363864;28;20469;-58
2023/08/02 18:54:19;;;;;;;7.68;1.95;;;21.50;75.80;;;;;;10362545;28;20033;-57
2023/08/02 18:59:20;;;;;;;3.38;1.40;;;21.50;75.80;;;;;;10361355;28;20034;-58
2023/08/02 19:04:21;;;;;;;4.72;1.67;;;21.50;75.70;;;;;;10359403;28;20026;-58
2023/08/02 19:09:21;;;;;;;5.53;1.50;;;21.50;75.80;;;;;;10362317;28;20342;-57
2023/08/02 19:14:22;;;;;;;7.45;1.98;;;21.40;75.70;;;;;;10359967;28;20164;-58
2023/08/02 19:19:31;;;;;;;4.15;1.10;;;21.40;75.70;;;;;;10363739;28;20512;-58
2023/08/02 19:24:32;;;;;;;5.45;1.45;;;21.30;75.80;;;;;;10361956;28;20029;-58
2023/08/02 19:29:33;;;;;;;4.40;1.65;;;21.30;75.90;;;;;;10361442;28;20406;-58
2023/08/02 19:34:35;;;;;;;4.65;1.27;;;21.30;75.80;;;;;;10361394;28;20022;-58
2023/08/02 19:39:37;;;;;;;4.95;1.90;;;21.30;75.80;;;;;;10362195;28;20045;-58
2023/08/02 19:44:38;;;;;;;2.28;1.02;;;21.30;75.70;;;;;;10356180;28;20030;-58
2023/08/02 19:49:39;;;;;;;3.35;1.08;;;21.20;75.50;;;;;;10371295;28;20018;-58
2023/08/02 19:54:40;;;;;;;4.45;0.88;;;21.20;75.60;;;;;;10372552;28;20050;-58
2023/08/02 19:59:41;;;;;;;1.48;0.57;;;21.20;75.50;;;;;;10361775;28;20117;-57
2023/08/02 20:04:42;;;;;;;2.70;0.85;;;21.20;75.50;;;;;;10361788;28;20040;-58
2023/08/02 20:09:51;;;;;;;3.05;1.15;;;21.20;75.40;;;;;;10361182;28;20109;-58
2023/08/02 20:14:52;;;;;;;1.75;0.80;;;21.20;75.40;;;;;;10340879;28;20022;-58
2023/08/02 20:19:53;;;;;;;2.97;0.70;;;21.10;75.20;;;;;;10371476;28;20485;-58
2023/08/02 20:24:54;;;;;;;2.05;0.85;;;21.10;75.20;;;;;;10370386;28;20105;-58
2023/08/02 20:29:54;;;;;;;3.63;1.08;;;21.10;75.20;;;;;;10370195;28;20025;-58
2023/08/02 20:34:55;;;;;;;2.55;0.90;;;21.10;75.20;;;;;;10354062;28;20458;-57
2023/08/02 20:39:56;;;;;;;1.55;0.93;;;21.10;75.20;;;;;;10328786;28;20483;-58
2023/08/02 20:44:57;;;;;;;1.52;0.80;;;21.10;75.20;;;;;;10330232;28;20598;-58
2023/08/02 20:49:57;;;;;;;3.40;0.77;;;21.10;75.10;;;;;;10329199;28;20020;-58
2023/08/02 20:55:00;;;;;;;4.53;1.05;;;21.10;75.10;;;;;;10328652;28;20080;-58
2023/08/02 21:00:05;;;;;;;1.13;0.73;;;21.10;75.10;;;;;;10328163;28;20030;-58
2023/08/02 21:05:06;;;;;;;1.48;0.85;;;21.00;75.10;;;;;;10329835;28;20042;-58
2023/08/02 21:10:07;;;;;;;2.20;0.98;;;21.00;75.00;;;;;;10342309;28;20110;-58
2023/08/02 21:15:10;;;;;;;2.80;0.85;;;21.00;75.00;;;;;;10341014;28;20053;-58
2023/08/02 21:20:32;;;;;;;3.30;1.13;;;21.00;75.00;;;;;;10368617;28;20373;-57
2023/08/02 21:25:42;;;;;;;1.45;0.68;;;21.00;74.90;;;;;;10369662;28;20014;-58
2023/08/02 21:30:46;;;;;;;2.95;1.00;;;21.00;74.90;;;;;;10369259;28;20417;-58
2023/08/02 21:35:53;;;;;;;1.63;0.80;;;21.00;74.80;;;;;;10369027;28;20030;-58
2023/08/02 21:40:56;;;;;;;2.35;0.90;;;21.00;74.80;;;;;;10368845;28;20042;-58
2023/08/02 21:46:06;;;;;;;4.40;1.02;;;21.00;74.80;;;;;;10368710;28;20060;-58
2023/08/02 21:51:07;;;;;;;2.70;1.25;;;21.00;74.70;;;;;;10368344;28;20022;-57
2023/08/02 21:56:09;;;;;;;1.98;0.90;;;21.00;74.70;;;;;;10365253;28;20037;-58
2023/08/02 22:01:19;;;;;;;3.80;0.82;;;21.00;74.70;;;;;;10367722;28;20497;-58
2023/08/02 22:06:31;;;;;;;1.45;1.00;;;20.90;74.60;;;;;;10367857;28;20032;-58
2023/08/02 22:11:32;;;;;;;4.65;1.50;;;20.90;74.70;;;;;;10343798;28;20015;-58
2023/08/02 22:16:33;;;;;;;3.08;1.10;;;20.90;74.60;;;;;;10351253;28;20032;-58
2023/08/02 22:21:34;;;;;;;4.28;1.13;;;20.90;74.60;;;;;;10365796;28;20113;-58
2023/08/02 22:26:34;;;;;;;3.55;0.95;;;20.90;74.70;;;;;;10366155;28;20018;-58
2023/08/02 22:31:35;;;;;;;4.63;1.33;;;20.90;74.70;;;;;;10366847;28;20105;-58
2023/08/02 22:36:36;;;;;;;2.97;1.20;;;20.90;74.80;;;;;;10366275;28;20128;-58
2023/08/02 22:41:36;;;;;;;2.20;0.90;;;20.90;75.30;;;;;;10365725;28;20573;-58
2023/08/02 22:46:38;;;;;;;2.17;0.90;;;20.90;74.70;;;;;;10365906;28;20025;-58
2023/08/02 22:51:38;;;;;;;2.20;0.80;;;20.90;74.70;;;;;;10365676;28;20097;-58
2023/08/02 22:56:39;;;;;;;3.05;1.02;;;20.90;74.60;;;;;;10365948;28;20029;-58
2023/08/02 23:01:40;;;;;;;1.88;0.95;;;20.90;74.70;;;;;;10366093;28;20066;-57
2023/08/02 23:06:40;;;;;;;3.45;1.25;;;20.90;74.70;;;;;;10364252;28;20018;-57
2023/08/02 23:11:42;;;;;;;3.08;0.90;;;20.90;74.70;;;;;;10341083;28;20113;-56
2023/08/02 23:16:43;;;;;;;2.97;0.70;;;20.80;74.70;;;;;;10350410;28;20037;-58
2023/08/02 23:21:44;;;;;;;1.60;0.98;;;20.80;74.70;;;;;;10363692;28;20108;-58
2023/08/02 23:26:45;;;;;;;2.03;0.85;;;20.80;74.70;;;;;;10364685;28;20109;-58
2023/08/02 23:31:48;;;;;;;1.42;0.70;;;20.80;74.70;;;;;;10362899;28;20380;-57
2023/08/02 23:36:48;;;;;;;1.52;0.70;;;20.80;74.70;;;;;;10363422;28;20436;-58
2023/08/02 23:41:49;;;;;;;2.33;0.88;;;20.80;74.70;;;;;;10363614;28;20034;-58
2023/08/02 23:46:50;;;;;;;1.10;0.68;;;20.90;74.70;;;;;;10364193;28;20041;-58
2023/08/02 23:51:50;;;;;;;1.38;0.68;;;20.80;74.70;;;;;;10330137;28;20481;-58
2023/08/02 23:56:51;;;;;;;4.38;0.85;;;20.80;74.70;;;;;;10322063;28;20110;-58
